Terminal Aerodrome Forecast
Issued by NWS Jackson, MS

Current Version | Previous Version | Text Only | Print | Product List | Glossary On
Versions: 1 2 3 4 5 6 7 8 9 10 11 12 13 14
000
FTUS44 KJAN 041700 RRA
TAFGWO
TAF
KGWO 041743Z 0418/0518 19012KT P6SM VCSH SCT020 BKN080
     FM042100 35017G22KT 3SM RA BR OVC007
     FM050100 36022G27KT 5SM -RA BR BKN010 OVC020
     FM050500 01023G30KT 4SM -FZRA BR OVC010
     FM051100 01025G33KT 5SM -FZRAPL OVC007
     FM051600 01020G27KT 4SM -SN BKN010 OVC025=

USA.gov is the U.S. government's official web portal to all federal, state and local government web resources and services.